createdAt,value
2022-08-22T00:02:23.685Z,4.20
2022-08-22T00:02:42.672Z,7.40
2022-08-22T00:02:49.335Z,6.20
2022-08-22T00:02:58.997Z,7.00
2022-08-22T00:04:43.464Z,3.70
2022-08-22T00:07:16.184Z,2.50
2022-08-22T00:09:29.352Z,1.60
2022-08-22T00:11:49.843Z,6.30
2022-08-22T00:14:10.285Z,5.90
2022-08-22T00:16:29.994Z,2.20
2022-08-22T00:18:49.728Z,3.60
2022-08-22T00:21:14.560Z,3.50
2022-08-22T00:23:23.030Z,4.30
2022-08-22T00:25:36.831Z,3.20
2022-08-22T00:27:55.008Z,3.80
2022-08-22T00:30:05.807Z,3.80
2022-08-22T00:32:20.664Z,3.30
2022-08-22T00:34:54.203Z,3.80
2022-08-22T00:37:29.067Z,3.50
2022-08-22T00:39:36.558Z,3.60
2022-08-22T00:41:49.623Z,2.90
2022-08-22T00:43:51.465Z,4.80
2022-08-22T00:46:38.150Z,4.30
2022-08-22T00:49:08.437Z,5.80
2022-08-22T00:51:39.715Z,2.70
2022-08-22T00:53:46.487Z,4.10
2022-08-22T00:56:20.052Z,4.20
2022-08-22T00:58:30.741Z,3.60
2022-08-22T01:00:39.387Z,2.60
2022-08-22T01:03:05.814Z,7.00
2022-08-22T01:05:30.236Z,7.30
2022-08-22T01:07:52.812Z,5.30
2022-08-22T01:15:23.975Z,6.00
2022-08-22T01:17:25.639Z,5.80
2022-08-22T01:19:55.554Z,3.90
2022-08-22T01:22:31.591Z,2.60
2022-08-22T01:25:13.919Z,4.90
2022-08-22T01:27:36.498Z,4.00
2022-08-22T01:29:50.027Z,5.70
2022-08-22T01:32:14.274Z,3.30
2022-08-22T01:34:34.110Z,4.90
2022-08-22T01:37:12.739Z,5.00
2022-08-22T01:39:49.213Z,3.20
2022-08-22T01:42:05.901Z,2.70
2022-08-22T01:44:34.129Z,4.10
2022-08-22T01:47:00.295Z,2.80
2022-08-22T01:49:10.689Z,4.80
2022-08-22T01:51:15.167Z,4.40
2022-08-22T01:53:39.889Z,5.80
2022-08-22T01:55:53.031Z,5.90
2022-08-22T01:58:21.153Z,4.30
2022-08-22T02:00:35.325Z,5.10
2022-08-22T02:02:58.683Z,6.70
2022-08-22T02:05:24.686Z,6.10
2022-08-22T02:07:57.296Z,1.80
2022-08-22T02:12:21.982Z,1.60
2022-08-22T02:14:32.957Z,3.60
2022-08-22T02:16:44.343Z,1.90
2022-08-22T02:18:54.860Z,2.40
2022-08-22T02:21:45.083Z,3.50
2022-08-22T02:23:55.956Z,2.00
2022-08-22T02:26:08.551Z,4.60
2022-08-22T02:30:26.552Z,8.90
2022-08-22T02:32:40.457Z,5.60
2022-08-22T02:34:42.355Z,2.50
2022-08-22T02:36:48.855Z,3.10
2022-08-22T02:39:16.303Z,4.70
2022-08-22T02:41:38.355Z,3.00
2022-08-22T02:43:58.175Z,6.50
2022-08-22T02:46:03.937Z,2.50
2022-08-22T02:48:32.593Z,2.70
2022-08-22T02:50:58.139Z,3.20
2022-08-22T02:53:02.533Z,4.80
2022-08-22T02:55:35.698Z,4.40
2022-08-22T02:57:45.826Z,1.90
2022-08-22T03:00:31.844Z,5.00
2022-08-22T03:02:38.198Z,2.40
2022-08-22T03:04:39.810Z,3.10
2022-08-22T03:07:02.146Z,5.00
2022-08-22T03:09:16.153Z,3.80
2022-08-22T03:11:22.271Z,2.40
2022-08-22T03:13:38.067Z,8.20
2022-08-22T03:15:55.207Z,4.80
2022-08-22T03:18:08.397Z,2.80
2022-08-22T03:20:14.849Z,5.10
2022-08-22T03:22:30.129Z,4.10
2022-08-22T03:25:09.920Z,4.10
2022-08-22T03:27:32.169Z,4.00
2022-08-22T03:29:38.461Z,3.50
2022-08-22T03:32:05.293Z,5.50
2022-08-22T03:34:23.585Z,4.90
2022-08-22T03:36:27.421Z,4.70
2022-08-22T03:38:34.751Z,4.70
2022-08-22T03:40:53.965Z,1.60
2022-08-22T03:43:38.231Z,2.10
2022-08-22T03:45:54.755Z,4.00
2022-08-22T03:48:05.050Z,11.70
2022-08-22T03:50:38.754Z,4.00
2022-08-22T03:53:03.096Z,3.50
2022-08-22T03:55:37.961Z,5.00
2022-08-22T03:58:23.911Z,4.50
2022-08-22T04:00:58.703Z,4.80
2022-08-22T04:03:06.441Z,4.70
2022-08-22T04:05:31.971Z,6.70
2022-08-22T04:07:50.253Z,5.50
2022-08-22T04:09:57.851Z,7.20
2022-08-22T04:12:18.552Z,36.90
2022-08-22T04:14:59.619Z,25.70
2022-08-22T04:17:01.353Z,34.20
2022-08-22T04:19:15.965Z,34.90
2022-08-22T04:21:53.055Z,36.20
2022-08-22T04:24:13.215Z,22.90
2022-08-22T04:26:27.167Z,24.50
2022-08-22T04:28:34.689Z,20.50
2022-08-22T04:31:17.318Z,21.00
2022-08-22T04:33:30.614Z,18.70
2022-08-22T04:35:42.082Z,25.40
2022-08-22T04:37:53.941Z,26.10
2022-08-22T04:40:16.906Z,27.00
2022-08-22T04:42:35.858Z,31.20
2022-08-22T04:44:43.435Z,30.40
2022-08-22T04:47:00.100Z,32.60
2022-08-22T04:49:08.163Z,30.30
2022-08-22T04:51:40.390Z,30.30
2022-08-22T04:53:48.182Z,27.20
2022-08-22T04:55:58.997Z,33.60
2022-08-22T04:58:26.947Z,32.60
2022-08-22T05:00:54.605Z,35.00
2022-08-22T05:02:57.597Z,39.40
2022-08-22T05:05:21.994Z,28.50
2022-08-22T05:07:35.805Z,27.60
2022-08-22T05:09:43.291Z,20.30
2022-08-22T05:11:49.291Z,28.70
2022-08-22T05:13:55.813Z,24.20
2022-08-22T05:16:01.392Z,21.20
2022-08-22T05:18:30.066Z,23.70
2022-08-22T05:20:32.155Z,27.20
2022-08-22T05:22:37.830Z,35.20
2022-08-22T05:24:46.495Z,31.30
2022-08-22T05:26:53.403Z,33.60
2022-08-22T05:29:02.431Z,23.90
2022-08-22T05:31:18.695Z,27.60
2022-08-22T05:33:29.435Z,22.80
2022-08-22T05:35:47.192Z,16.10
2022-08-22T05:37:53.353Z,17.60
2022-08-22T05:39:58.521Z,13.30
2022-08-22T05:42:06.912Z,13.00
2022-08-22T05:44:20.632Z,14.00
2022-08-22T05:46:43.211Z,16.70
2022-08-22T05:51:23.506Z,20.00
2022-08-22T05:53:30.939Z,11.80
2022-08-22T05:56:00.033Z,7.10
2022-08-22T05:58:39.034Z,9.10
2022-08-22T06:00:43.724Z,13.30
2022-08-22T06:03:05.163Z,11.00
2022-08-22T06:06:00.143Z,8.70
2022-08-22T06:08:20.382Z,10.60
2022-08-22T06:10:39.053Z,8.40
2022-08-22T06:13:05.053Z,10.90
2022-08-22T06:15:20.977Z,10.10
2022-08-22T06:21:19.086Z,13.40
2022-08-22T06:24:00.108Z,8.40
2022-08-22T06:26:02.472Z,8.90
2022-08-22T06:28:08.297Z,6.90
2022-08-22T06:30:13.737Z,9.90
2022-08-22T06:32:59.482Z,9.60
2022-08-22T06:35:08.048Z,7.30
2022-08-22T06:37:17.037Z,6.40
2022-08-22T06:39:20.525Z,6.30
2022-08-22T06:41:25.636Z,10.00
2022-08-22T06:43:38.140Z,7.80
2022-08-22T06:45:40.695Z,7.50
2022-08-22T06:47:53.751Z,7.90
2022-08-22T06:50:02.127Z,6.80
2022-08-22T06:52:08.544Z,14.40
2022-08-22T06:54:16.977Z,8.30
2022-08-22T06:56:40.829Z,6.20
2022-08-22T06:58:46.127Z,8.00
2022-08-22T07:01:11.107Z,9.10
2022-08-22T07:03:20.459Z,11.70
2022-08-22T07:05:26.638Z,12.00
2022-08-22T07:07:28.697Z,10.80
2022-08-22T07:11:41.079Z,7.70
2022-08-22T07:13:45.852Z,9.10
2022-08-22T07:15:54.086Z,8.50
2022-08-22T07:18:01.857Z,10.00
2022-08-22T07:20:19.074Z,11.20
2022-08-22T07:22:30.330Z,9.20
2022-08-22T07:24:33.078Z,10.90
2022-08-22T07:27:02.261Z,8.50
2022-08-22T07:29:23.094Z,9.30
2022-08-22T07:32:07.585Z,14.50
2022-08-22T07:34:23.164Z,11.50
2022-08-22T07:36:50.900Z,9.60
2022-08-22T07:39:00.984Z,12.10
2022-08-22T07:41:11.739Z,8.50
2022-08-22T07:44:03.121Z,9.40
2022-08-22T07:46:30.926Z,7.00
2022-08-22T07:48:48.639Z,6.90
2022-08-22T07:51:05.780Z,15.60
2022-08-22T07:53:20.825Z,7.90
2022-08-22T07:55:24.726Z,10.70
2022-08-22T07:57:35.652Z,8.70
2022-08-22T07:59:39.338Z,10.30
2022-08-22T08:01:49.484Z,7.70
2022-08-22T08:03:59.110Z,14.50
2022-08-22T08:06:01.565Z,9.10
2022-08-22T08:08:13.775Z,10.60
2022-08-22T08:10:24.087Z,9.20
2022-08-22T08:12:38.676Z,8.80
2022-08-22T08:14:42.574Z,6.50
2022-08-22T08:16:49.742Z,10.00
2022-08-22T08:18:57.042Z,8.60
2022-08-22T08:21:03.624Z,9.40
2022-08-22T08:23:09.180Z,7.60
2022-08-22T08:25:15.043Z,8.30
2022-08-22T08:27:40.189Z,8.80
2022-08-22T08:29:48.219Z,9.30
2022-08-22T08:31:49.951Z,8.90
2022-08-22T08:33:59.066Z,5.90
2022-08-22T08:36:11.324Z,5.50
2022-08-22T08:38:16.556Z,6.50
2022-08-22T08:40:24.192Z,9.80
2022-08-22T08:42:31.795Z,12.60
2022-08-22T08:44:37.459Z,10.80
2022-08-22T08:47:07.627Z,9.20
2022-08-22T08:59:10.820Z,7.40
2022-08-22T09:04:53.719Z,5.60
2022-08-22T09:10:49.155Z,6.10
2022-08-22T09:12:56.461Z,7.60
2022-08-22T09:15:31.003Z,6.60
2022-08-22T09:17:48.023Z,5.20
2022-08-22T09:20:19.419Z,6.20
2022-08-22T09:22:33.514Z,5.60
2022-08-22T09:25:11.895Z,4.40
2022-08-22T09:27:31.304Z,8.60
2022-08-22T09:29:33.032Z,4.50
2022-08-22T09:31:52.649Z,5.50
2022-08-22T09:34:05.943Z,4.20
2022-08-22T09:36:18.071Z,6.30
2022-08-22T09:38:36.969Z,6.20
2022-08-22T09:40:52.027Z,7.80
2022-08-22T09:43:07.298Z,5.20
2022-08-22T09:45:32.794Z,5.50
2022-08-22T09:47:50.217Z,6.40
2022-08-22T09:49:58.963Z,4.80
2022-08-22T09:52:33.803Z,12.70
2022-08-22T09:54:48.310Z,9.00
2022-08-22T09:57:09.725Z,8.40
2022-08-22T09:59:46.078Z,3.70
2022-08-22T10:02:00.946Z,5.00
2022-08-22T10:04:56.369Z,3.30
2022-08-22T10:07:17.981Z,3.90
2022-08-22T10:09:31.374Z,3.70
2022-08-22T10:11:45.687Z,7.30
2022-08-22T10:14:01.212Z,4.60
2022-08-22T10:16:39.517Z,2.00
2022-08-22T10:18:54.721Z,4.40
2022-08-22T10:21:23.262Z,5.80
2022-08-22T10:24:06.936Z,3.60
2022-08-22T10:26:23.064Z,7.90
2022-08-22T10:28:49.245Z,5.20
2022-08-22T10:31:25.354Z,2.40
2022-08-22T10:33:33.440Z,5.80
2022-08-22T10:36:23.849Z,4.50
2022-08-22T10:40:38.689Z,2.90
2022-08-22T10:42:53.654Z,4.50
2022-08-22T10:45:23.699Z,5.20
2022-08-22T10:47:58.789Z,8.70
2022-08-22T10:50:10.914Z,4.10
2022-08-22T10:52:21.601Z,4.60
2022-08-22T10:55:09.641Z,5.90
2022-08-22T10:57:34.016Z,6.10
2022-08-22T11:00:45.986Z,3.20
2022-08-22T11:02:54.738Z,5.10
2022-08-22T11:08:56.465Z,3.10
2022-08-22T11:11:07.179Z,5.50
2022-08-22T11:13:42.255Z,3.10
2022-08-22T11:16:09.088Z,5.10
2022-08-22T11:18:40.268Z,1.80
2022-08-22T11:20:47.673Z,3.70
2022-08-22T11:23:01.326Z,5.60
2022-08-22T11:25:26.882Z,5.80
2022-08-22T11:28:11.686Z,4.00
2022-08-22T11:30:18.346Z,4.20
2022-08-22T11:32:42.420Z,4.30
2022-08-22T11:34:50.088Z,3.50
2022-08-22T11:36:58.552Z,7.20
2022-08-22T11:39:17.977Z,5.40
2022-08-22T11:41:58.808Z,6.80
2022-08-22T11:44:18.470Z,4.70
2022-08-22T11:46:31.237Z,4.10
2022-08-22T11:48:47.873Z,6.50
2022-08-22T11:51:15.741Z,5.50
2022-08-22T11:53:38.902Z,6.20
2022-08-22T11:56:07.690Z,3.00
2022-08-22T11:58:21.278Z,4.40
2022-08-22T12:00:44.390Z,6.30
2022-08-22T12:03:32.959Z,5.60
2022-08-22T12:05:43.821Z,3.50
2022-08-22T12:08:11.433Z,7.00
2022-08-22T12:10:20.211Z,3.50
2022-08-22T12:12:24.845Z,4.30
2022-08-22T12:14:54.685Z,7.10
2022-08-22T12:17:55.558Z,4.30
2022-08-22T12:20:27.320Z,4.70
2022-08-22T12:22:54.148Z,7.40
2022-08-22T12:25:04.739Z,5.00
2022-08-22T12:27:12.332Z,3.20
2022-08-22T12:29:33.525Z,4.70
2022-08-22T12:31:42.312Z,4.80
2022-08-22T12:34:04.782Z,7.80
2022-08-22T12:36:18.493Z,4.30
2022-08-22T12:41:07.304Z,5.20
2022-08-22T12:43:28.541Z,3.30
2022-08-22T12:45:56.113Z,3.70
2022-08-22T12:48:27.860Z,2.70
2022-08-22T12:50:57.243Z,4.40
2022-08-22T12:53:18.131Z,3.80
2022-08-22T12:55:41.043Z,2.60
2022-08-22T12:57:50.568Z,4.50
2022-08-22T13:00:05.548Z,2.60
2022-08-22T13:02:24.619Z,4.80
2022-08-22T13:04:33.348Z,4.20
2022-08-22T13:06:42.202Z,3.20
2022-08-22T13:08:51.272Z,3.20
2022-08-22T13:11:01.469Z,4.20
2022-08-22T13:13:12.043Z,5.00
2022-08-22T13:19:17.964Z,4.10
2022-08-22T13:21:24.110Z,2.00
2022-08-22T13:23:34.325Z,1.70
2022-08-22T13:26:08.685Z,2.90
2022-08-22T13:28:12.339Z,1.50
2022-08-22T13:30:38.018Z,1.50
2022-08-22T13:32:45.959Z,3.10
2022-08-22T13:34:52.398Z,3.60
2022-08-22T13:36:57.932Z,1.50
2022-08-22T13:39:35.340Z,2.20
2022-08-22T13:41:44.405Z,2.10
2022-08-22T13:44:17.652Z,2.50
2022-08-22T13:46:23.527Z,4.10
2022-08-22T13:48:49.901Z,1.40
2022-08-22T13:51:08.080Z,2.00
2022-08-22T13:53:48.944Z,1.70
2022-08-22T13:56:15.413Z,1.70
2022-08-22T13:58:39.549Z,1.20
2022-08-22T14:01:37.930Z,1.60
2022-08-22T14:04:01.046Z,1.30
2022-08-22T14:06:36.874Z,0.80
2022-08-22T14:08:36.371Z,1.60
2022-08-22T14:10:41.938Z,1.60
2022-08-22T14:12:56.301Z,0.70
2022-08-22T14:15:00.756Z,0.90
2022-08-22T14:17:04.295Z,0.90
2022-08-22T14:19:13.153Z,0.90
2022-08-22T14:21:26.583Z,1.10
2022-08-22T14:23:29.386Z,2.10
2022-08-22T14:25:38.066Z,1.30
2022-08-22T14:27:59.566Z,1.60
2022-08-22T14:30:13.926Z,6.20
2022-08-22T14:32:22.664Z,0.90
2022-08-22T14:34:29.025Z,0.80
2022-08-22T14:36:45.813Z,1.40
2022-08-22T14:38:53.406Z,1.20
2022-08-22T14:41:01.012Z,2.40
2022-08-22T14:43:22.197Z,1.80
2022-08-22T14:45:30.515Z,0.90
2022-08-22T14:48:29.293Z,0.80
2022-08-22T14:50:50.219Z,1.00
2022-08-22T14:53:08.035Z,0.80
2022-08-22T14:55:15.736Z,1.30
2022-08-22T14:57:20.206Z,2.00
2022-08-22T14:59:27.099Z,0.80
2022-08-22T15:01:32.906Z,1.50
2022-08-22T15:03:38.027Z,1.00
2022-08-22T15:05:45.562Z,1.70
2022-08-22T15:07:54.487Z,2.30
2022-08-22T15:10:11.924Z,1.50
2022-08-22T15:12:26.787Z,1.30
2022-08-22T15:14:37.177Z,1.50
2022-08-22T15:16:45.454Z,1.50
2022-08-22T15:18:51.803Z,1.30
2022-08-22T15:21:04.031Z,0.90
2022-08-22T15:23:19.961Z,1.80
2022-08-22T15:25:42.795Z,1.10
2022-08-22T15:27:54.492Z,1.30
2022-08-22T15:30:00.073Z,1.20
2022-08-22T15:32:03.365Z,1.60
2022-08-22T15:34:08.675Z,0.80
2022-08-22T15:36:15.894Z,1.00
2022-08-22T15:38:42.088Z,3.10
2022-08-22T15:40:49.982Z,1.30
2022-08-22T15:42:58.161Z,1.50
2022-08-22T15:45:00.869Z,1.10
2022-08-22T15:47:34.869Z,1.40
2022-08-22T15:49:58.321Z,1.50
2022-08-22T15:54:24.491Z,2.70
2022-08-22T15:56:37.650Z,1.20
2022-08-22T15:58:53.221Z,2.90
2022-08-22T16:01:19.187Z,1.30
2022-08-22T16:03:31.877Z,1.60
2022-08-22T16:05:50.835Z,2.70
2022-08-22T16:08:11.036Z,1.90
2022-08-22T16:10:21.795Z,1.50
2022-08-22T16:12:31.265Z,2.50
2022-08-22T16:14:35.971Z,1.60
2022-08-22T16:16:50.015Z,1.20
2022-08-22T16:18:51.675Z,1.50
2022-08-22T16:20:54.385Z,1.60
2022-08-22T16:22:58.799Z,2.40
2022-08-22T16:25:02.746Z,1.60
2022-08-22T16:27:22.717Z,1.80
2022-08-22T16:29:41.505Z,1.50
2022-08-22T16:31:46.461Z,3.30
2022-08-22T16:33:48.193Z,1.40
2022-08-22T16:36:14.955Z,1.30
2022-08-22T16:38:30.192Z,3.10
2022-08-22T16:40:46.050Z,2.80
2022-08-22T16:43:09.855Z,2.70
2022-08-22T16:45:21.870Z,2.90
2022-08-22T16:47:54.549Z,1.80
2022-08-22T16:50:24.388Z,2.80
2022-08-22T16:52:28.955Z,2.20
2022-08-22T16:54:46.355Z,1.50
2022-08-22T16:57:07.769Z,0.90
2022-08-22T16:59:23.876Z,1.70
2022-08-22T17:01:29.444Z,1.10
2022-08-22T17:04:08.537Z,3.10
2022-08-22T17:06:32.269Z,1.10
2022-08-22T17:08:36.943Z,2.60
2022-08-22T17:11:08.079Z,1.10
2022-08-22T17:13:26.834Z,0.70
2022-08-22T17:15:48.130Z,1.30
2022-08-22T17:18:21.849Z,1.00
2022-08-22T17:20:45.300Z,2.30
2022-08-22T17:22:58.146Z,0.70
2022-08-22T17:25:14.992Z,1.30
2022-08-22T17:27:34.955Z,3.00
2022-08-22T17:29:53.755Z,1.20
2022-08-22T17:32:10.798Z,0.70
2022-08-22T17:34:21.518Z,0.70
2022-08-22T17:36:27.213Z,0.70
2022-08-22T17:38:48.040Z,0.70
2022-08-22T17:41:04.787Z,0.80
2022-08-22T17:43:48.524Z,1.10
2022-08-22T17:45:56.609Z,0.50
2022-08-22T17:48:05.890Z,1.40
2022-08-22T17:50:20.790Z,1.00
2022-08-22T17:52:28.362Z,0.90
2022-08-22T17:54:45.943Z,0.60
2022-08-22T17:57:05.281Z,0.40
2022-08-22T17:59:20.928Z,0.80
2022-08-22T18:01:44.093Z,1.30
2022-08-22T18:03:59.130Z,1.20
2022-08-22T18:06:09.283Z,1.50
2022-08-22T18:10:48.012Z,0.70
2022-08-22T18:13:23.708Z,0.70
2022-08-22T18:15:43.897Z,0.80
2022-08-22T18:18:03.503Z,1.50
2022-08-22T18:20:16.394Z,0.40
2022-08-22T18:22:20.236Z,0.50
2022-08-22T18:24:45.009Z,2.10
2022-08-22T18:26:52.921Z,2.30
2022-08-22T18:29:06.197Z,0.60
2022-08-22T18:31:29.853Z,2.30
2022-08-22T18:33:50.236Z,0.40
2022-08-22T18:36:03.855Z,0.60
2022-08-22T18:38:24.954Z,0.70
2022-08-22T18:40:49.675Z,0.70
2022-08-22T18:43:04.417Z,3.00
2022-08-22T18:45:06.560Z,0.40
2022-08-22T18:47:16.333Z,1.30
2022-08-22T18:49:20.935Z,2.90
2022-08-22T18:51:28.418Z,3.70
2022-08-22T18:53:45.482Z,1.10
2022-08-22T18:55:56.233Z,1.70
2022-08-22T18:58:00.887Z,1.10
2022-08-22T19:00:17.180Z,0.50
2022-08-22T19:02:55.596Z,0.70
2022-08-22T19:05:17.727Z,0.50
2022-08-22T19:07:28.312Z,1.10
2022-08-22T19:09:50.815Z,1.20
2022-08-22T19:11:58.647Z,1.10
2022-08-22T19:14:31.701Z,1.00
2022-08-22T19:16:56.066Z,1.30
2022-08-22T19:19:02.190Z,1.50
2022-08-22T19:21:39.962Z,1.30
2022-08-22T19:23:48.099Z,1.10
2022-08-22T19:26:38.041Z,4.90
2022-08-22T19:28:39.749Z,1.10
2022-08-22T19:30:49.570Z,2.50
2022-08-22T19:32:51.206Z,3.70
2022-08-22T19:35:21.641Z,1.30
2022-08-22T19:37:32.281Z,1.80
2022-08-22T19:39:41.013Z,1.40
2022-08-22T19:41:53.835Z,1.80
2022-08-22T19:43:55.507Z,1.60
2022-08-22T19:45:59.949Z,2.50
2022-08-22T19:48:11.741Z,3.80
2022-08-22T19:50:18.502Z,1.70
2022-08-22T19:52:27.215Z,1.70
2022-08-22T19:54:30.470Z,1.70
2022-08-22T19:56:41.105Z,2.20
2022-08-22T19:58:50.571Z,2.20
2022-08-22T20:00:59.972Z,1.70
2022-08-22T20:03:13.087Z,2.10
2022-08-22T20:05:57.492Z,1.60
2022-08-22T20:08:13.648Z,2.30
2022-08-22T20:10:27.593Z,2.20
2022-08-22T20:12:32.399Z,2.20
2022-08-22T20:14:36.982Z,2.20
2022-08-22T20:16:58.514Z,2.30
2022-08-22T20:19:07.659Z,2.20
2022-08-22T20:21:09.767Z,2.00
2022-08-22T20:23:27.127Z,2.50
2022-08-22T20:25:49.403Z,2.40
2022-08-22T20:27:53.476Z,2.20
2022-08-22T20:30:16.530Z,3.30
2022-08-22T20:32:21.214Z,2.70
2022-08-22T20:34:29.212Z,2.90
2022-08-22T20:36:31.169Z,2.80
2022-08-22T20:40:56.527Z,4.30
2022-08-22T20:43:23.161Z,4.30
2022-08-22T20:45:29.611Z,3.70
2022-08-22T20:47:41.146Z,4.40
2022-08-22T20:49:47.428Z,3.20
2022-08-22T20:51:57.541Z,4.70
2022-08-22T20:54:15.954Z,4.40
2022-08-22T20:56:32.016Z,5.40
2022-08-22T20:58:38.517Z,5.40
2022-08-22T21:00:44.198Z,6.50
2022-08-22T21:03:02.109Z,6.50
2022-08-22T21:05:11.738Z,6.10
2022-08-22T21:07:31.100Z,4.60
2022-08-22T21:09:51.353Z,5.10
2022-08-22T21:11:58.998Z,6.20
2022-08-22T21:14:17.567Z,5.90
2022-08-22T21:16:22.717Z,8.50
2022-08-22T21:18:26.562Z,6.00
2022-08-22T21:20:32.916Z,8.00
2022-08-22T21:22:34.726Z,6.00
2022-08-22T21:24:39.235Z,6.90
2022-08-22T21:26:59.346Z,8.80
2022-08-22T21:29:07.457Z,6.40
2022-08-22T21:31:15.358Z,7.90
2022-08-22T21:33:23.749Z,5.50
2022-08-22T21:35:29.613Z,5.80
2022-08-22T21:37:43.427Z,5.10
2022-08-22T21:39:49.015Z,6.70
2022-08-22T21:42:12.382Z,5.80
2022-08-22T21:44:25.822Z,5.40
2022-08-22T21:46:31.201Z,6.80
2022-08-22T21:48:44.044Z,4.80
2022-08-22T21:53:01.653Z,7.70
2022-08-22T21:55:15.805Z,5.80
2022-08-22T21:57:20.418Z,5.00
2022-08-22T21:59:51.717Z,5.40
2022-08-22T22:02:37.351Z,5.50
2022-08-22T22:04:39.302Z,5.80
2022-08-22T22:06:40.934Z,6.90
2022-08-22T22:08:43.009Z,6.30
2022-08-22T22:10:46.885Z,6.20
2022-08-22T22:12:51.827Z,6.50
2022-08-22T22:14:53.622Z,5.90
2022-08-22T22:16:55.326Z,7.90
2022-08-22T22:18:58.189Z,6.10
2022-08-22T22:21:00.448Z,5.80
2022-08-22T22:23:02.283Z,6.40
2022-08-22T22:25:04.879Z,6.90
2022-08-22T22:27:07.625Z,6.60
2022-08-22T22:29:10.782Z,6.10
2022-08-22T22:31:12.463Z,6.10
2022-08-22T22:33:14.258Z,6.30
2022-08-22T22:35:18.753Z,6.80
2022-08-22T22:37:20.604Z,8.50
2022-08-22T22:39:22.689Z,6.60
2022-08-22T22:41:25.846Z,7.40
2022-08-22T22:43:27.817Z,6.30
2022-08-22T22:45:29.879Z,6.40
2022-08-22T22:47:33.059Z,6.80
2022-08-22T22:49:37.569Z,7.00
2022-08-22T22:51:42.447Z,6.20
2022-08-22T22:53:44.916Z,6.90
2022-08-22T22:55:59.769Z,6.40
2022-08-22T22:58:05.592Z,6.80
2022-08-22T23:00:08.197Z,7.10
2022-08-22T23:02:13.353Z,7.10
2022-08-22T23:04:15.019Z,7.00
2022-08-22T23:06:19.834Z,6.20
2022-08-22T23:08:21.845Z,6.90
2022-08-22T23:10:23.695Z,7.10
2022-08-22T23:12:27.277Z,7.80
2022-08-22T23:14:30.240Z,7.20
2022-08-22T23:16:37.000Z,6.80
2022-08-22T23:18:39.058Z,6.40
2022-08-22T23:20:40.739Z,6.70
2022-08-22T23:22:45.059Z,7.60
2022-08-22T23:24:51.709Z,7.00
2022-08-22T23:26:53.366Z,7.40
2022-08-22T23:28:55.917Z,7.50
2022-08-22T23:31:09.242Z,7.60
2022-08-22T23:33:10.928Z,8.00
2022-08-22T23:35:12.785Z,6.80
2022-08-22T23:37:17.835Z,6.40
2022-08-22T23:39:21.132Z,6.70
2022-08-22T23:41:24.078Z,7.20
2022-08-22T23:43:25.726Z,8.10
2022-08-22T23:45:27.394Z,7.10
2022-08-22T23:47:29.118Z,7.30
2022-08-22T23:49:31.524Z,7.00
2022-08-22T23:51:34.194Z,7.50
2022-08-22T23:53:36.016Z,9.10
2022-08-22T23:55:37.717Z,8.30
2022-08-22T23:57:41.547Z,9.20
2022-08-22T23:59:48.023Z,8.00
